Aérodrome :
LOGIN :

S'inscrire | Disclaimer

   EN    FR    IT 

 










Légende :    VFR   VFR Marginal   IFR   IFR Intensif   IFR Très Intensif
Visi : 
Plafond : 
>= 8 km
>= 3000ft
5 à 8 km
1000 à 3000 ft
1500m à 5 km
500 à 1000 ft
800 à 1500m
200 à 500 ft
< 800m
< 200 ft
Symboles :   Orages  Brouillard  Fortes neiges  Fortes précipitations  Vent > 20 kt
SIGMETs :   Divers  Orages  Givrage  Turbulence  Onde Orograph.  Cendres Volcan.







- Altitude de l'aérodrome : 1470 ft
- Code IATA : KLU


LOWK - Klagenfurt

DERNIER METAR :
  • 250050Z AUTO VRB02KT 9999 NSC 12/08 Q1014

METARs EXPIRÉS :
  • 250020Z AUTO 31004KT 9999 FEW090 13/08 Q1014
  • 242350Z AUTO 27003KT 240V300 9999 BKN080 13/08 Q1014
  • 242320Z AUTO 32003KT 9999 SCT080 14/08 Q1014
  • 242250Z AUTO 33004KT 9999 FEW080 14/08 Q1014
  • 242220Z AUTO VRB02KT 9999 FEW080 14/08 Q1014
  • 242150Z AUTO VRB01KT 9999 FEW090 16/08 Q1014

TAF TAF LOWK
Valide du 25 à 00h jusqu'au 26 à 00h UTC


242315Z 2500/2524 VRB02KT 9999 FEW060 SCT250 TX22/2513Z TN10/2504Z
TEMPO 2510/2517 22006KT FEW050CB SCT100
PROB30
TEMPO 2511/2515 VRB12KT -TSRA
Pas de NOTAMs connus pour ce terrain.



MET'MAP, la Météo Aéronautique d'un coup d'oeil ! - Copyright ORBIFLY Décembre 2007 - Disclaimer

ORBIFLY MET'MAP TEAM :

Programmation & Développement : Alexandra Zaïnal
Conception & Développement : Baudouin d'Aumeries
Co-Programmation & Développement : Marc-Olivier Méhu
Soutien technique & logistique : Manuel Goepfert

Contact : metmap@orbifly.com




SOURCES & CREDITS :

   NOAA